Archival Weather

Tokyo Intl

Tokyo, Japan (RJTT)

Report from: Tuesday, November 21, 2023 6:00 PM JST
Current time: Sunday, February 25, 2024 12:18 AM JST

Current weather – Weather history – Daily summaries
Weather forecast

Temperature16.0°C (60.8°F)
Dew point11.0°C (51.8°F)
Winds 8 kts (4.1 m/s, 9.2 mph) South (180°)
Visibility6.2 mi. (10 km)
Clouds Few clouds 4,500 ft. (1,372 m)
Altimeter30.12 in.Hg (1020 mB)
Relative humidity72 %
Density altitude75 ft. (23 m)
Flight conditions Visual Meteorological Conditions
Raw dataRJTT 210900Z 18008KT 9999 FEW045 16/11 Q1020 BECMG FM1000 28006KT RMK 1SC045 A3015
An error has occurred. This application may no longer respond until reloaded. Reload 🗙